< Typhoon 199912 1999 Season Typhoon 199914 >
Typhoon 199913 (VIRGIL)
General InformationTrack Information on Google MapsDetailed Wind InformationList of All Images || Disaster Info.ResourceGoogle EarthGE AnimationAtom FeedGeoJSON
Detalied Best Track (Time Zone = UTC)
Year Month Day Hour Lat. Long. Pressure (hPa) Wind (kt) Class Image Chart
1999 8 23 00 27.5 140.0 1012 0 2 Image Chart
1999 8 23 06 27.1 140.0 1012 0 2 Image Chart
1999 8 23 12 26.9 139.8 1012 0 2 Image Chart
1999 8 23 18 26.7 139.8 1012 0 2 Image Chart
1999 8 24 00 25.9 140.0 1012 0 2 Image Chart
1999 8 24 06 25.6 140.3 1010 0 2 Image Chart
1999 8 24 12 25.4 140.9 1010 0 2 Image Chart
1999 8 24 18 25.6 141.3 1010 0 2 Image Chart
1999 8 25 00 25.9 141.8 1010 0 2 Image Chart
1999 8 25 06 26.2 142.7 1002 40 3 Image Chart
1999 8 25 09 26.3 143.1 998 45 3 Image Chart
1999 8 25 12 26.4 143.5 996 45 3 Image Chart
1999 8 25 15 26.5 143.8 994 50 4 Image Chart
1999 8 25 18 26.6 144.2 994 50 4 Image Chart
1999 8 25 21 26.7 144.5 996 50 4 Image Chart
1999 8 26 00 26.9 144.8 998 45 3 Image Chart
1999 8 26 03 27.2 145.1 1000 40 3 Image Chart
1999 8 26 06 27.4 145.3 1000 40 3 Image Chart
1999 8 26 12 27.7 145.6 1000 40 3 Image Chart
1999 8 26 18 28.1 145.6 1002 35 3 Image Chart
1999 8 27 00 28.3 145.6 1002 35 3 Image Chart
1999 8 27 06 28.6 146.0 1004 0 2 Image Chart
1999 8 27 12 29.0 146.3 1006 0 2 Image Chart
1999 8 27 18 29.3 146.7 1006 0 2 Image Chart
1999 8 28 00 29.5 147.2 1006 0 2 Image Chart
1999 8 28 06 30.0 148.4 1006 0 2 Image Chart
1999 8 28 12 30.3 149.2 1006 0 2 Image Chart
1999 8 28 18 30.6 150.5 1006 0 2 Image Chart
1999 8 29 00 30.9 152.2 1008 0 2 Image Chart
1999 8 29 06 30.9 154.3 1008 0 2 Image Chart
1999 8 29 12 30.8 156.0 1008 0 2 Image Chart
1999 8 29 18 30.8 157.8 1008 0 2 Image Chart
Japan Meteorological Agency Best Track Data | Correction Date : 2005-03-01
< Typhoon 199912 1999 Season Typhoon 199914 >

Help